EGBJ

Gloucestershire Airport

Staverton, United Kingdom
METAR EGBJ 151620Z 22013KT 190V250 9999 SCT033 22/15 Q1015
Observed Flight Rules
Aug-15 @ 16:20 UTC (14 hours ago) Visual Flight Rules
Wind Visibility Clouds
220° at 13 knots 10,000+ meters
  • Scattered at 3,300' AGL
Temperatures Readings
Current 22°C / 72°F
Dewpoint 15°C / 59°F
Humidity 65%
Altimeter 29.97" Hg
Pressure 1015 hPa
Elevation 29
METAR EGBJ 151620Z 22013KT 190V250 9999 SCT033 22/15 Q1015
Observed Flight Rules
Aug-15 @ 16:20 UTC
(14 hours ago)
VFR
Wind Visibility
220° at 13 knots 10,000+ meters
Clouds
  • Scattered at 3,300' AGL
Temperature Dewpoint
22°C / 72°F 15°C / 59°F
Humidity Altimeter Pressure
65% 29.97" Hg 1015 hPa